Terminal Aerodrome Forecast
Issued by NWS

Home | Current Version | Previous Version | Text Only | Print | Product List | Glossary On
Versions: 1 2 3 4 5 6 7 8 9 10 11 12 13 14 15 16 17 18 19 20 21 22 23 24 25
000
FTUS44 KLIX 271748
TAFGPT
TAF
KGPT 271748Z 2718/2818 35016G25KT 3SM TSRA BR FEW027 BKN045CB
      OVC090
      TEMPO 2718/2720 VRB30G40KT 2SM +TSRA SCT015 OVC025CB
     FM272000 08012KT 6SM -TSRA BR SCT020 OVC040CB
     FM280000 08015KT 3SM -SHRA OVC015=

USA.gov is the U.S. government's official web portal to all federal, state and local government web resources and services.